createdAt,value
2022-10-21T00:02:00.871Z,70.47
2022-10-21T00:04:27.750Z,70.64
2022-10-21T00:06:54.616Z,70.49
2022-10-21T00:09:21.778Z,70.61
2022-10-21T00:11:48.665Z,70.48
2022-10-21T00:14:15.716Z,70.56
2022-10-21T00:16:42.685Z,70.44
2022-10-21T00:19:09.606Z,70.55
2022-10-21T00:21:37.328Z,70.35
2022-10-21T00:24:04.475Z,70.47
2022-10-21T00:26:34.969Z,70.48
2022-10-21T00:29:04.707Z,70.34
2022-10-21T00:31:33.369Z,70.71
2022-10-21T00:34:00.259Z,70.50
2022-10-21T00:36:27.195Z,70.68
2022-10-21T00:38:56.284Z,70.64
2022-10-21T00:41:23.294Z,70.44
2022-10-21T00:44:06.151Z,70.71
2022-10-21T00:46:32.965Z,70.58
2022-10-21T00:49:03.437Z,70.50
2022-10-21T00:51:31.125Z,70.42
2022-10-21T00:53:59.057Z,70.48
2022-10-21T00:56:30.685Z,70.70
2022-10-21T00:59:00.168Z,70.49
2022-10-21T01:01:27.398Z,70.64
2022-10-21T01:03:54.341Z,70.54
2022-10-21T01:06:23.737Z,70.68
2022-10-21T01:08:54.491Z,70.59
2022-10-21T01:11:22.908Z,70.62
2022-10-21T01:14:20.578Z,70.71
2022-10-21T01:16:53.536Z,70.67
2022-10-21T01:19:47.788Z,70.68
2022-10-21T01:22:52.344Z,70.68
2022-10-21T01:25:53.079Z,70.71
2022-10-21T01:29:00.683Z,70.81
2022-10-21T01:31:33.816Z,70.65
2022-10-21T01:34:14.697Z,70.77
2022-10-21T01:37:08.227Z,70.75
2022-10-21T01:39:36.991Z,70.57
2022-10-21T01:42:42.526Z,70.66
2022-10-21T01:45:18.300Z,70.78
2022-10-21T01:47:53.613Z,70.69
2022-10-21T01:50:26.858Z,70.73
2022-10-21T01:53:05.914Z,70.69
2022-10-21T01:55:35.051Z,70.70
2022-10-21T01:58:06.472Z,70.71
2022-10-21T02:00:36.355Z,70.60
2022-10-21T02:03:10.819Z,70.60
2022-10-21T02:05:38.049Z,70.80
2022-10-21T02:08:05.215Z,70.88
2022-10-21T02:10:38.437Z,70.75
2022-10-21T02:13:09.468Z,70.74
2022-10-21T02:15:38.933Z,70.73
2022-10-21T02:18:17.610Z,70.81
2022-10-21T02:20:45.042Z,70.73
2022-10-21T02:23:15.355Z,70.84
2022-10-21T02:25:45.784Z,70.80
2022-10-21T02:28:13.637Z,70.69
2022-10-21T02:31:08.463Z,70.72
2022-10-21T02:33:54.259Z,70.78
2022-10-21T02:36:27.123Z,70.87
2022-10-21T02:39:02.218Z,70.72
2022-10-21T02:41:31.932Z,70.71
2022-10-21T02:44:02.260Z,70.70
2022-10-21T02:46:41.588Z,70.55
2022-10-21T02:49:08.827Z,70.71
2022-10-21T02:51:36.051Z,70.88
2022-10-21T02:54:03.131Z,70.80
2022-10-21T02:59:02.080Z,70.87
2022-10-21T03:01:29.070Z,70.98
2022-10-21T03:03:55.966Z,70.94
2022-10-21T03:06:23.814Z,70.84
2022-10-21T03:08:50.826Z,70.89
2022-10-21T03:11:18.015Z,70.85
2022-10-21T03:13:45.003Z,70.94
2022-10-21T03:16:11.949Z,70.87
2022-10-21T03:18:38.790Z,70.81
2022-10-21T03:21:05.816Z,70.76
2022-10-21T03:23:33.154Z,70.74
2022-10-21T03:25:59.987Z,70.99
2022-10-21T03:28:27.408Z,70.94
2022-10-21T03:30:54.476Z,71.00
2022-10-21T03:33:21.407Z,70.97
2022-10-21T03:35:48.236Z,70.86
2022-10-21T03:38:15.067Z,70.89
2022-10-21T03:40:41.865Z,70.79
2022-10-21T03:43:08.728Z,70.88
2022-10-21T03:45:35.674Z,70.80
2022-10-21T03:48:02.727Z,70.82
2022-10-21T03:50:29.590Z,70.75
2022-10-21T03:52:56.521Z,70.74
2022-10-21T03:55:24.743Z,70.79
2022-10-21T03:57:52.706Z,70.60
2022-10-21T04:00:19.946Z,70.73
2022-10-21T04:02:46.937Z,70.75
2022-10-21T04:05:14.766Z,70.86
2022-10-21T04:07:41.956Z,70.93
2022-10-21T04:10:10.156Z,70.85
2022-10-21T04:12:37.928Z,70.85
2022-10-21T04:15:06.590Z,70.80
2022-10-21T04:17:33.628Z,70.71
2022-10-21T04:20:00.577Z,70.78
2022-10-21T04:22:27.576Z,70.91
2022-10-21T04:24:54.454Z,70.85
2022-10-21T04:27:21.500Z,70.94
2022-10-21T04:29:48.354Z,70.89
2022-10-21T04:32:15.181Z,70.75
2022-10-21T04:34:42.394Z,70.74
2022-10-21T04:37:09.367Z,70.77
2022-10-21T04:39:36.497Z,70.88
2022-10-21T04:42:03.777Z,70.84
2022-10-21T04:44:30.670Z,70.83
2022-10-21T04:46:57.665Z,71.03
2022-10-21T04:49:24.598Z,71.01
2022-10-21T04:51:51.488Z,70.92
2022-10-21T04:54:18.486Z,70.83
2022-10-21T04:56:45.394Z,70.88
2022-10-21T04:59:12.356Z,70.83
2022-10-21T05:01:39.428Z,70.83
2022-10-21T05:04:06.968Z,70.85
2022-10-21T05:06:33.870Z,70.99
2022-10-21T05:09:01.255Z,70.89
2022-10-21T05:11:28.344Z,70.91
2022-10-21T05:13:55.186Z,70.98
2022-10-21T05:16:23.679Z,70.90
2022-10-21T05:18:50.600Z,70.87
2022-10-21T05:21:17.466Z,71.01
2022-10-21T05:23:44.359Z,70.77
2022-10-21T05:26:11.306Z,70.86
2022-10-21T05:28:38.234Z,70.91
2022-10-21T05:31:05.167Z,70.94
2022-10-21T05:33:32.006Z,70.94
2022-10-21T05:36:01.553Z,70.96
2022-10-21T05:38:29.202Z,71.00
2022-10-21T05:40:56.526Z,71.06
2022-10-21T05:43:24.209Z,71.13
2022-10-21T05:45:51.060Z,71.02
2022-10-21T05:48:18.114Z,71.28
2022-10-21T05:50:46.027Z,71.18
2022-10-21T05:53:13.785Z,71.32
2022-10-21T05:55:40.662Z,71.38
2022-10-21T05:58:07.737Z,71.25
2022-10-21T06:00:34.747Z,71.52
2022-10-21T06:03:01.944Z,71.51
2022-10-21T06:05:28.854Z,71.42
2022-10-21T06:07:55.914Z,71.52
2022-10-21T06:10:26.653Z,71.53
2022-10-21T06:12:55.988Z,71.61
2022-10-21T06:15:23.309Z,71.60
2022-10-21T06:17:51.433Z,71.72
2022-10-21T06:20:18.530Z,71.77
2022-10-21T06:22:45.430Z,71.89
2022-10-21T06:25:12.570Z,71.80
2022-10-21T06:27:40.093Z,71.75
2022-10-21T06:30:07.639Z,71.74
2022-10-21T06:32:35.201Z,71.82
2022-10-21T06:35:02.229Z,71.95
2022-10-21T06:37:29.360Z,71.94
2022-10-21T06:39:56.456Z,71.96
2022-10-21T06:42:23.332Z,71.82
2022-10-21T06:44:50.270Z,71.88
2022-10-21T06:47:17.159Z,71.84
2022-10-21T06:49:44.330Z,71.88
2022-10-21T06:52:11.177Z,71.86
2022-10-21T06:54:38.203Z,71.88
2022-10-21T06:57:05.145Z,71.95
2022-10-21T06:59:32.134Z,71.83
2022-10-21T07:02:00.716Z,72.01
2022-10-21T07:04:28.788Z,71.99
2022-10-21T07:06:55.952Z,71.93
2022-10-21T07:09:22.939Z,71.84
2022-10-21T07:11:49.865Z,72.03
2022-10-21T07:14:16.750Z,71.79
2022-10-21T07:16:43.873Z,71.89
2022-10-21T07:19:11.096Z,71.96
2022-10-21T07:21:38.208Z,72.02
2022-10-21T07:24:05.302Z,71.94
2022-10-21T07:26:33.985Z,71.96
2022-10-21T07:29:01.643Z,72.02
2022-10-21T07:31:33.253Z,72.10
2022-10-21T07:34:01.372Z,72.10
2022-10-21T07:36:31.364Z,72.08
2022-10-21T07:39:02.118Z,72.34
2022-10-21T07:41:32.150Z,72.24
2022-10-21T07:43:59.731Z,72.19
2022-10-21T07:46:27.042Z,72.21
2022-10-21T07:48:54.996Z,72.12
2022-10-21T07:51:28.454Z,72.09
2022-10-21T07:54:00.456Z,72.20
2022-10-21T07:56:31.238Z,72.18
2022-10-21T07:58:59.019Z,72.06
2022-10-21T08:01:26.080Z,72.15
2022-10-21T08:03:55.077Z,72.12
2022-10-21T08:06:23.672Z,72.13
2022-10-21T08:08:51.113Z,72.14
2022-10-21T08:11:29.514Z,72.11
2022-10-21T08:13:57.333Z,72.33
2022-10-21T08:16:24.991Z,72.26
2022-10-21T08:18:52.847Z,72.41
2022-10-21T08:21:20.469Z,72.19
2022-10-21T08:23:47.868Z,72.35
2022-10-21T08:26:15.634Z,72.11
2022-10-21T08:28:42.993Z,72.30
2022-10-21T08:31:16.507Z,72.23
2022-10-21T08:33:44.829Z,72.19
2022-10-21T08:36:18.722Z,72.20
2022-10-21T08:38:46.414Z,72.11
2022-10-21T08:41:28.770Z,72.08
2022-10-21T08:44:05.311Z,72.02
2022-10-21T08:47:10.601Z,72.13
2022-10-21T08:49:43.803Z,72.05
2022-10-21T08:52:16.472Z,72.25
2022-10-21T08:54:53.233Z,72.06
2022-10-21T08:57:20.373Z,72.06
2022-10-21T08:59:47.366Z,72.02
2022-10-21T09:02:17.098Z,72.42
2022-10-21T09:04:55.839Z,72.23
2022-10-21T09:07:29.411Z,72.40
2022-10-21T09:10:07.367Z,72.05
2022-10-21T09:12:56.247Z,71.93
2022-10-21T09:15:51.162Z,71.98
2022-10-21T09:19:16.514Z,71.81
2022-10-21T09:22:29.965Z,72.13
2022-10-21T09:25:13.350Z,72.33
2022-10-21T09:27:55.130Z,72.11
2022-10-21T09:30:24.206Z,72.54
2022-10-21T09:32:56.522Z,72.07
2022-10-21T09:35:36.237Z,72.19
2022-10-21T09:38:17.663Z,72.26
2022-10-21T09:40:47.038Z,72.14
2022-10-21T09:43:18.030Z,72.22
2022-10-21T09:45:46.209Z,72.16
2022-10-21T09:48:21.784Z,72.11
2022-10-21T09:51:00.509Z,72.38
2022-10-21T09:53:31.149Z,72.19
2022-10-21T09:56:04.367Z,72.44
2022-10-21T09:59:05.054Z,72.29
2022-10-21T10:01:36.448Z,71.93
2022-10-21T10:04:13.906Z,72.28
2022-10-21T10:06:43.768Z,72.22
2022-10-21T10:09:15.526Z,72.09
2022-10-21T10:11:53.300Z,72.45
2022-10-21T10:14:34.274Z,72.56
2022-10-21T10:17:21.498Z,72.62
2022-10-21T10:20:03.723Z,72.63
2022-10-21T10:22:37.246Z,71.88
2022-10-21T10:25:11.317Z,71.89
2022-10-21T10:27:59.678Z,71.85
2022-10-21T10:30:49.230Z,71.98
2022-10-21T10:33:35.474Z,71.47
2022-10-21T10:36:09.270Z,71.67
2022-10-21T10:38:39.800Z,71.90
2022-10-21T10:41:09.520Z,71.91
2022-10-21T10:43:46.744Z,72.00
2022-10-21T10:46:26.485Z,71.55
2022-10-21T10:48:55.315Z,71.75
2022-10-21T10:51:23.231Z,71.85
2022-10-21T10:54:02.942Z,71.71
2022-10-21T10:56:43.610Z,71.43
2022-10-21T10:59:16.821Z,71.03
2022-10-21T11:05:35.769Z,70.87
2022-10-21T11:08:14.398Z,70.75
2022-10-21T11:10:53.848Z,70.43
2022-10-21T11:13:23.553Z,70.22
2022-10-21T11:16:05.107Z,70.21
2022-10-21T11:18:37.658Z,70.16
2022-10-21T11:21:16.451Z,70.11
2022-10-21T11:23:58.705Z,69.80
2022-10-21T11:26:39.871Z,69.92
2022-10-21T11:29:25.341Z,69.88
2022-10-21T11:32:11.553Z,69.74
2022-10-21T11:35:00.758Z,69.60
2022-10-21T11:37:27.892Z,69.46
2022-10-21T11:40:13.802Z,69.40
2022-10-21T11:42:49.212Z,69.20
2022-10-21T11:45:18.739Z,69.46
2022-10-21T11:47:55.069Z,69.52
2022-10-21T11:50:25.067Z,69.79
2022-10-21T11:53:18.896Z,69.71
2022-10-21T11:56:07.772Z,69.38
2022-10-21T11:59:14.659Z,69.05
2022-10-21T12:01:53.648Z,68.91
2022-10-21T12:04:29.525Z,68.59
2022-10-21T12:07:12.668Z,68.55
2022-10-21T12:09:45.683Z,68.47
2022-10-21T12:12:23.377Z,68.44
2022-10-21T12:14:58.374Z,68.53
2022-10-21T12:17:25.980Z,68.36
2022-10-21T12:20:14.600Z,68.17
2022-10-21T12:22:41.814Z,68.26
2022-10-21T12:25:11.572Z,68.07
2022-10-21T12:27:43.153Z,67.92
2022-10-21T12:30:34.602Z,67.76
2022-10-21T12:33:38.668Z,67.78
2022-10-21T12:36:37.684Z,67.80
2022-10-21T12:39:12.198Z,67.61
2022-10-21T12:41:40.389Z,67.69
2022-10-21T12:44:13.546Z,67.65
2022-10-21T12:46:43.613Z,67.34
2022-10-21T12:49:19.697Z,67.18
2022-10-21T12:51:55.104Z,66.92
2022-10-21T12:54:30.506Z,66.94
2022-10-21T12:57:11.177Z,66.86
2022-10-21T12:59:42.356Z,66.79
2022-10-21T13:02:27.610Z,66.84
2022-10-21T13:04:56.629Z,66.90
2022-10-21T13:07:23.549Z,66.94
2022-10-21T13:09:50.454Z,66.87
2022-10-21T13:12:30.632Z,66.80
2022-10-21T13:15:01.766Z,66.77
2022-10-21T13:17:32.845Z,66.85
2022-10-21T13:20:05.963Z,66.82
2022-10-21T13:22:39.709Z,66.58
2022-10-21T13:25:15.917Z,66.39
2022-10-21T13:27:47.904Z,66.34
2022-10-21T13:30:34.041Z,66.35
2022-10-21T13:33:04.462Z,66.41
2022-10-21T13:35:41.967Z,66.39
2022-10-21T13:38:23.181Z,66.38
2022-10-21T13:41:00.133Z,66.24
2022-10-21T13:43:30.665Z,66.10
2022-10-21T13:46:08.748Z,66.14
2022-10-21T13:48:41.913Z,66.12
2022-10-21T13:51:34.077Z,66.12
2022-10-21T13:54:12.164Z,66.18
2022-10-21T13:56:40.565Z,66.12
2022-10-21T13:59:32.192Z,66.24
2022-10-21T14:01:59.137Z,66.33
2022-10-21T14:04:29.197Z,66.30
2022-10-21T14:07:05.847Z,66.43
2022-10-21T14:09:40.620Z,66.45
2022-10-21T14:12:43.184Z,66.35
2022-10-21T14:15:21.267Z,66.54
2022-10-21T14:17:51.954Z,66.46
2022-10-21T14:20:33.377Z,66.47
2022-10-21T14:23:06.408Z,66.50
2022-10-21T14:25:34.226Z,66.54
2022-10-21T14:28:03.668Z,66.61
2022-10-21T14:30:33.242Z,66.62
2022-10-21T14:33:03.302Z,66.62
2022-10-21T14:35:31.539Z,66.76
2022-10-21T14:38:03.827Z,66.71
2022-10-21T14:40:35.462Z,66.77
2022-10-21T14:43:18.586Z,66.95
2022-10-21T14:45:51.341Z,66.90
2022-10-21T14:48:50.621Z,66.99
2022-10-21T14:51:22.094Z,67.06
2022-10-21T14:53:57.275Z,67.05
2022-10-21T14:56:31.215Z,67.19
2022-10-21T14:59:00.296Z,67.17
2022-10-21T15:01:27.529Z,67.24
2022-10-21T15:03:57.775Z,67.34
2022-10-21T15:06:26.355Z,67.21
2022-10-21T15:08:56.498Z,67.40
2022-10-21T15:11:29.532Z,67.39
2022-10-21T15:13:57.702Z,67.64
2022-10-21T15:16:27.981Z,67.60
2022-10-21T15:18:55.034Z,67.62
2022-10-21T15:21:25.036Z,67.75
2022-10-21T15:23:56.025Z,67.85
2022-10-21T15:26:36.669Z,67.82
2022-10-21T15:29:42.601Z,68.02
2022-10-21T15:32:12.877Z,68.24
2022-10-21T15:34:39.820Z,68.34
2022-10-21T15:37:06.957Z,68.51
2022-10-21T15:39:33.843Z,68.48
2022-10-21T15:42:01.160Z,68.72
2022-10-21T15:44:30.121Z,68.89
2022-10-21T15:47:00.331Z,68.98
2022-10-21T15:49:32.305Z,69.12
2022-10-21T15:51:59.287Z,69.19
2022-10-21T15:54:26.263Z,69.27
2022-10-21T15:56:54.160Z,69.29
2022-10-21T15:59:30.036Z,69.25
2022-10-21T16:01:57.724Z,69.58
2022-10-21T16:04:25.758Z,69.61
2022-10-21T16:06:54.099Z,69.66
2022-10-21T16:09:25.034Z,69.69
2022-10-21T16:11:59.436Z,69.91
2022-10-21T16:14:29.597Z,70.08
2022-10-21T16:16:58.200Z,70.19
2022-10-21T16:19:25.632Z,70.30
2022-10-21T16:21:52.608Z,70.45
2022-10-21T16:24:19.435Z,70.51
2022-10-21T16:26:48.484Z,70.42
2022-10-21T16:29:20.987Z,70.64
2022-10-21T16:31:48.282Z,70.58
2022-10-21T16:34:15.261Z,70.65
2022-10-21T16:36:42.609Z,70.79
2022-10-21T16:39:18.274Z,70.93
2022-10-21T16:41:45.577Z,71.10
2022-10-21T16:44:12.432Z,71.06
2022-10-21T16:46:42.087Z,71.21
2022-10-21T16:49:15.079Z,71.25
2022-10-21T16:51:47.262Z,71.21
2022-10-21T16:54:15.783Z,71.24
2022-10-21T16:56:42.743Z,71.20
2022-10-21T16:59:09.655Z,71.47
2022-10-21T17:01:37.013Z,71.67
2022-10-21T17:04:04.523Z,71.48
2022-10-21T17:06:31.492Z,71.60
2022-10-21T17:08:58.431Z,71.59
2022-10-21T17:11:35.613Z,71.48
2022-10-21T17:14:05.088Z,71.66
2022-10-21T17:16:32.282Z,71.86
2022-10-21T17:18:59.784Z,71.90
2022-10-21T17:21:29.681Z,71.71
2022-10-21T17:23:57.061Z,71.85
2022-10-21T17:26:24.334Z,71.87
2022-10-21T17:28:51.554Z,71.97
2022-10-21T17:31:21.010Z,71.98
2022-10-21T17:33:49.254Z,72.04
2022-10-21T17:36:17.170Z,72.09
2022-10-21T17:38:44.953Z,72.22
2022-10-21T17:41:14.845Z,72.07
2022-10-21T17:43:41.990Z,72.22
2022-10-21T17:46:16.205Z,72.18
2022-10-21T17:48:43.202Z,72.40
2022-10-21T17:51:10.127Z,72.39
2022-10-21T17:53:36.975Z,72.23
2022-10-21T17:56:06.404Z,72.41
2022-10-21T17:58:34.349Z,72.52
2022-10-21T18:01:09.058Z,72.47
2022-10-21T18:03:36.800Z,72.41
2022-10-21T18:06:06.989Z,72.75
2022-10-21T18:08:34.586Z,72.75
2022-10-21T18:11:02.452Z,72.54
2022-10-21T18:13:30.587Z,72.58
2022-10-21T18:16:06.540Z,72.86
2022-10-21T18:18:34.102Z,72.95
2022-10-21T18:21:27.495Z,72.88
2022-10-21T18:23:55.034Z,72.92
2022-10-21T18:26:29.122Z,73.03
2022-10-21T18:29:00.423Z,73.14
2022-10-21T18:31:32.713Z,73.13
2022-10-21T18:34:04.480Z,73.31
2022-10-21T18:36:32.409Z,73.36
2022-10-21T18:38:59.907Z,73.12
2022-10-21T18:41:26.959Z,73.34
2022-10-21T18:44:00.791Z,73.31
2022-10-21T18:46:31.591Z,73.35
2022-10-21T18:48:59.144Z,73.38
2022-10-21T18:51:26.516Z,73.36
2022-10-21T18:53:53.593Z,73.42
2022-10-21T18:56:22.781Z,73.35
2022-10-21T18:58:51.259Z,73.60
2022-10-21T19:01:19.969Z,73.65
2022-10-21T19:03:50.286Z,73.76
2022-10-21T19:06:45.614Z,73.66
2022-10-21T19:09:16.481Z,73.91
2022-10-21T19:11:45.025Z,73.84
2022-10-21T19:14:15.635Z,73.96
2022-10-21T19:16:44.251Z,73.91
2022-10-21T19:19:13.166Z,73.68
2022-10-21T19:21:40.232Z,73.66
2022-10-21T19:24:08.234Z,73.92
2022-10-21T19:26:37.448Z,74.08
2022-10-21T19:29:24.093Z,73.76
2022-10-21T19:31:51.557Z,73.96
2022-10-21T19:34:22.239Z,74.22
2022-10-21T19:36:49.505Z,74.05
2022-10-21T19:39:16.677Z,74.09
2022-10-21T19:41:43.987Z,74.09
2022-10-21T19:44:11.222Z,73.91
2022-10-21T19:46:58.351Z,74.01
2022-10-21T19:49:26.175Z,74.04
2022-10-21T19:51:56.117Z,74.08
2022-10-21T19:54:23.012Z,74.07
2022-10-21T19:56:50.867Z,74.18
2022-10-21T20:01:49.684Z,74.25
2022-10-21T20:04:16.612Z,74.02
2022-10-21T20:06:43.918Z,74.18
2022-10-21T20:09:12.974Z,74.13
2022-10-21T20:11:40.878Z,73.93
2022-10-21T20:14:08.295Z,74.12
2022-10-21T20:16:38.250Z,74.02
2022-10-21T20:19:05.842Z,74.12
2022-10-21T20:21:34.227Z,74.06
2022-10-21T20:24:01.327Z,73.91
2022-10-21T20:29:07.843Z,74.15
2022-10-21T20:31:34.953Z,74.21
2022-10-21T20:34:02.382Z,74.05
2022-10-21T20:36:34.604Z,74.02
2022-10-21T20:39:02.657Z,74.10
2022-10-21T20:41:34.077Z,74.08
2022-10-21T20:44:02.418Z,74.15
2022-10-21T20:46:34.345Z,73.91
2022-10-21T20:49:02.501Z,73.92
2022-10-21T20:51:29.698Z,74.03
2022-10-21T20:53:59.624Z,73.96
2022-10-21T20:56:27.621Z,73.88
2022-10-21T20:58:54.668Z,74.03
2022-10-21T21:01:24.910Z,74.05
2022-10-21T21:03:57.648Z,74.05
2022-10-21T21:06:25.581Z,74.07
2022-10-21T21:09:15.083Z,74.08
2022-10-21T21:11:40.307Z,74.08
2022-10-21T21:14:09.443Z,74.06
2022-10-21T21:16:36.666Z,74.14
2022-10-21T21:19:06.049Z,74.08
2022-10-21T21:21:34.899Z,74.07
2022-10-21T21:24:03.029Z,74.25
2022-10-21T21:26:32.195Z,74.22
2022-10-21T21:29:00.097Z,73.98
2022-10-21T21:31:29.058Z,73.90
2022-10-21T21:33:56.499Z,73.96
2022-10-21T21:36:24.249Z,74.02
2022-10-21T21:38:53.109Z,74.09
2022-10-21T21:41:21.471Z,73.86
2022-10-21T21:43:50.640Z,73.82
2022-10-21T21:46:24.803Z,73.94
2022-10-21T21:48:56.026Z,74.02
2022-10-21T21:51:27.538Z,73.97
2022-10-21T21:53:55.822Z,73.91
2022-10-21T21:56:23.886Z,74.10
2022-10-21T21:58:54.191Z,74.02
2022-10-21T22:01:25.009Z,74.01
2022-10-21T22:03:52.785Z,74.03
2022-10-21T22:06:22.199Z,74.24
2022-10-21T22:08:49.621Z,73.95
2022-10-21T22:11:20.618Z,74.16
2022-10-21T22:13:47.922Z,73.97
2022-10-21T22:16:16.186Z,73.93
2022-10-21T22:18:43.447Z,73.95
2022-10-21T22:21:14.724Z,74.13
2022-10-21T22:23:42.255Z,73.98
2022-10-21T22:26:10.643Z,73.91
2022-10-21T22:28:38.443Z,73.89
2022-10-21T22:31:11.468Z,73.94
2022-10-21T22:33:39.821Z,73.82
2022-10-21T22:36:07.472Z,73.85
2022-10-21T22:38:34.526Z,73.63
2022-10-21T22:41:05.193Z,73.93
2022-10-21T22:43:34.241Z,73.84
2022-10-21T22:46:09.758Z,73.79
2022-10-21T22:48:48.380Z,73.84
2022-10-21T22:51:15.323Z,73.69
2022-10-21T22:53:42.197Z,73.61
2022-10-21T22:56:09.180Z,73.67
2022-10-21T22:58:36.090Z,73.87
2022-10-21T23:01:08.535Z,74.01
2022-10-21T23:03:36.405Z,73.72
2022-10-21T23:06:03.555Z,73.63
2022-10-21T23:08:30.479Z,73.71
2022-10-21T23:11:00.192Z,73.69
2022-10-21T23:13:27.057Z,73.68
2022-10-21T23:15:53.928Z,73.66
2022-10-21T23:18:23.158Z,73.53
2022-10-21T23:20:50.012Z,73.64
2022-10-21T23:23:16.942Z,73.50
2022-10-21T23:25:43.884Z,73.58
2022-10-21T23:28:10.869Z,73.67
2022-10-21T23:30:37.962Z,73.59
2022-10-21T23:33:04.888Z,73.48
2022-10-21T23:35:32.366Z,73.67
2022-10-21T23:37:59.463Z,73.61
2022-10-21T23:40:27.340Z,73.46
2022-10-21T23:42:54.636Z,73.41
2022-10-21T23:45:21.666Z,73.53
2022-10-21T23:47:48.881Z,73.47
2022-10-21T23:50:16.426Z,73.56
2022-10-21T23:52:43.463Z,73.48
2022-10-21T23:55:10.315Z,73.45
2022-10-21T23:57:37.324Z,73.35
